Time;durP1;ratioP1;P1;durP2;ratioP2;P2;SDS_P1;SDS_P2;PMS_P1;PMS_P2;Temp;Humidity;BMP_temperature;BMP_pressure;BME280_temperature;BME280_humidity;BME280_pressure;Samples;Min_cycle;Max_cycle;Signal;HPM_P1;HPM_P2
2020/12/05 00:00:11;;;;;;;;;;;;;;;;;;4975188;28;20017;-84
2020/12/05 00:02:38;;;;;;;;;;;;;;;;;;4981106;28;19936;-84
2020/12/05 00:05:05;;;;;;;;;;;;;;;;;;4980091;28;20004;-85
2020/12/05 00:07:32;;;;;;;;;;;;;;;;;;4992075;28;20012;-85
2020/12/05 00:09:59;;;;;;;;;;;;;;;;;;4983877;28;19932;-85
2020/12/05 00:12:27;;;;;;;;;;;;;;;;;;4968249;28;19933;-85
2020/12/05 00:14:54;;;;;;;;;;;;;;;;;;4983214;28;20020;-85
2020/12/05 00:17:22;;;;;;;;;;;;;;;;;;4984109;28;19933;-84
2020/12/05 00:19:49;;;;;;;;;;;;;;;;;;4976383;28;19980;-85
2020/12/05 00:22:17;;;;;;;;;;;;;;;;;;4986161;28;19937;-85
2020/12/05 00:24:44;;;;;;;;;;;;;;;;;;4978925;28;19961;-84
2020/12/05 00:27:11;;;;;;;;;;;;;;;;;;4979751;28;20420;-85
2020/12/05 00:29:38;;;;;;;;;;;;;;;;;;4980879;28;20385;-84
2020/12/05 00:32:07;;;;;;;;;;;;;;;;;;4978550;28;20433;-84
2020/12/05 00:34:34;;;;;;;;;;;;;;;;;;4986296;28;19925;-85
2020/12/05 00:37:01;;;;;;;;;;;;;;;;;;4992449;28;19932;-84
2020/12/05 00:39:29;;;;;;;;;;;;;;;;;;4985841;28;19981;-85
2020/12/05 00:41:56;;;;;;;;;;;;;;;;;;4977632;28;20371;-85
2020/12/05 00:44:23;;;;;;;;;;;;;;;;;;4981424;28;19969;-85
2020/12/05 00:46:50;;;;;;;;;;;;;;;;;;4982923;28;20028;-85
2020/12/05 00:49:17;;;;;;;;;;;;;;;;;;4988185;28;20478;-85
2020/12/05 00:51:44;;;;;;;;;;;;;;;;;;4976604;28;20060;-85
2020/12/05 00:54:11;;;;;;;;;;;;;;;;;;4976868;28;19980;-85
2020/12/05 00:56:38;;;;;;;;;;;;;;;;;;4985648;28;19933;-85
2020/12/05 00:59:05;;;;;;;;;;;;;;;;;;4975901;28;19930;-86
2020/12/05 01:01:33;;;;;;;;;;;;;;;;;;4988295;28;20317;-85
2020/12/05 01:04:00;;;;;;;;;;;;;;;;;;4980101;28;20427;-85
2020/12/05 01:06:27;;;;;;;;;;;;;;;;;;4984856;28;20025;-85
2020/12/05 01:08:54;;;;;;;;;;;;;;;;;;4985771;28;19965;-85
2020/12/05 01:11:21;;;;;;;;;;;;;;;;;;4981741;28;20378;-85
2020/12/05 01:13:49;;;;;;;;;;;;;;;;;;4988040;28;20432;-84
2020/12/05 01:16:16;;;;;;;;;;;;;;;;;;4989633;28;19957;-85
2020/12/05 01:18:43;;;;;;;;;;;;;;;;;;4987803;28;20012;-86
2020/12/05 01:21:10;;;;;;;;;;;;;;;;;;4987050;28;20064;-85
2020/12/05 01:23:37;;;;;;;;;;;;;;;;;;4975808;28;20414;-85
2020/12/05 01:26:05;;;;;;;;;;;;;;;;;;4978390;28;19984;-85
2020/12/05 01:28:32;;;;;;;;;;;;;;;;;;4976445;28;19953;-85
2020/12/05 01:30:59;;;;;;;;;;;;;;;;;;4983658;28;20012;-85
2020/12/05 01:33:26;;;;;;;;;;;;;;;;;;4985699;28;19997;-85
2020/12/05 01:35:53;;;;;;;;;;;;;;;;;;4982976;28;19925;-85
2020/12/05 01:38:20;;;;;;;;;;;;;;;;;;4992433;28;19932;-85
2020/12/05 01:40:48;;;;;;;;;;;;;;;;;;4981072;28;19984;-85
2020/12/05 01:43:15;;;;;;;;;;;;;;;;;;4987859;28;19926;-84
2020/12/05 01:45:42;;;;;;;;;;;;;;;;;;4978455;28;20034;-84
2020/12/05 01:48:09;;;;;;;;;;;;;;;;;;4992302;28;19969;-85
2020/12/05 01:50:36;;;;;;;;;;;;;;;;;;4976820;28;19966;-84
2020/12/05 01:53:04;;;;;;;;;;;;;;;;;;4977156;28;19926;-85
2020/12/05 01:55:31;;;;;;;;;;;;;;;;;;4979691;28;19953;-85
2020/12/05 01:57:59;;;;;;;;;;;;;;;;;;4976717;28;20399;-85
2020/12/05 02:00:26;;;;;;;;;;;;;;;;;;4983626;28;19926;-85
2020/12/05 02:05:29;;;;;;;;;;;;;;;;;;5254319;23;19926;-89
2020/12/05 02:07:57;;;;;;;;;;;;;;;;;;4976331;28;19926;-89
2020/12/05 02:10:25;;;;;;;;;;;;;;;;;;4970348;28;20289;-89
2020/12/05 02:12:52;;;;;;;;;;;;;;;;;;4976370;28;19930;-90
2020/12/05 02:15:20;;;;;;;;;;;;;;;;;;4980793;28;19926;-89
2020/12/05 02:17:47;;;;;;;;;;;;;;;;;;4995355;28;19973;-89
2020/12/05 02:20:15;;;;;;;;;;;;;;;;;;4989284;28;19937;-90
2020/12/05 02:22:42;;;;;;;;;;;;;;;;;;4977383;28;19937;-89
2020/12/05 02:25:10;;;;;;;;;;;;;;;;;;4976273;28;19981;-89
2020/12/05 02:27:38;;;;;;;;;;;;;;;;;;4977273;28;19946;-90
2020/12/05 02:30:06;;;;;;;;;;;;;;;;;;4979255;28;19956;-90
2020/12/05 02:32:33;;;;;;;;;;;;;;;;;;4982240;28;19933;-90
2020/12/05 02:35:01;;;;;;;;;;;;;;;;;;4977369;28;19981;-89
2020/12/05 02:37:30;;;;;;;;;;;;;;;;;;4980662;28;19933;-89
2020/12/05 02:39:58;;;;;;;;;;;;;;;;;;4976545;28;20024;-90
2020/12/05 02:42:25;;;;;;;;;;;;;;;;;;4978596;28;19926;-89
2020/12/05 02:44:53;;;;;;;;;;;;;;;;;;4981427;28;19950;-89
2020/12/05 02:47:21;;;;;;;;;;;;;;;;;;4990046;28;20432;-90
2020/12/05 02:49:49;;;;;;;;;;;;;;;;;;5005680;28;19932;-89
2020/12/05 02:52:17;;;;;;;;;;;;;;;;;;5001958;28;19930;-90
2020/12/05 02:54:44;;;;;;;;;;;;;;;;;;5004907;28;19930;-89
2020/12/05 02:57:11;;;;;;;;;;;;;;;;;;5006212;28;19926;-89
2020/12/05 02:59:39;;;;;;;;;;;;;;;;;;4990865;28;19926;-90
2020/12/05 03:02:07;;;;;;;;;;;;;;;;;;4980701;28;19934;-89
2020/12/05 03:04:37;;;;;;;;;;;;;;;;;;4980501;28;20025;-89
2020/12/05 03:07:05;;;;;;;;;;;;;;;;;;4985586;28;20416;-89
2020/12/05 03:09:33;;;;;;;;;;;;;;;;;;4982092;28;19926;-89
2020/12/05 03:12:01;;;;;;;;;;;;;;;;;;4979830;28;19926;-90
2020/12/05 03:14:29;;;;;;;;;;;;;;;;;;4978939;28;19950;-89
2020/12/05 03:16:56;;;;;;;;;;;;;;;;;;4982674;28;19957;-89
2020/12/05 03:19:24;;;;;;;;;;;;;;;;;;4981471;28;19926;-88
2020/12/05 03:21:53;;;;;;;;;;;;;;;;;;4997942;28;19937;-89
2020/12/05 03:24:20;;;;;;;;;;;;;;;;;;4996083;28;19925;-89
2020/12/05 03:26:48;;;;;;;;;;;;;;;;;;4996597;28;20353;-89
2020/12/05 03:29:15;;;;;;;;;;;;;;;;;;4990160;28;19956;-89
2020/12/05 03:31:57;;;;;;;;;;;;;;;;;;4979295;28;19930;-90
2020/12/05 03:34:28;;;;;;;;;;;;;;;;;;4980624;28;19926;-90
2020/12/05 03:36:56;;;;;;;;;;;;;;;;;;4981511;28;19926;-90
2020/12/05 03:39:24;;;;;;;;;;;;;;;;;;4990522;28;19937;-90
2020/12/05 03:41:52;;;;;;;;;;;;;;;;;;4981734;28;19930;-89
2020/12/05 03:44:20;;;;;;;;;;;;;;;;;;4983197;28;20110;-89
2020/12/05 03:46:47;;;;;;;;;;;;;;;;;;4981911;28;20386;-89
2020/12/05 03:49:15;;;;;;;;;;;;;;;;;;4982089;28;19949;-90
2020/12/05 03:51:43;;;;;;;;;;;;;;;;;;4981264;28;19926;-90
2020/12/05 03:54:11;;;;;;;;;;;;;;;;;;4982581;28;20310;-90
2020/12/05 03:56:38;;;;;;;;;;;;;;;;;;4989601;28;19990;-89
2020/12/05 03:59:06;;;;;;;;;;;;;;;;;;4983148;28;19933;-90
2020/12/05 04:01:35;;;;;;;;;;;;;;;;;;4988435;28;20024;-89
2020/12/05 04:04:02;;;;;;;;;;;;;;;;;;4981599;28;19927;-89
2020/12/05 04:06:30;;;;;;;;;;;;;;;;;;4992047;28;19980;-89
2020/12/05 04:08:58;;;;;;;;;;;;;;;;;;4986949;28;19930;-90
2020/12/05 04:11:27;;;;;;;;;;;;;;;;;;4987756;28;19972;-90
2020/12/05 04:13:54;;;;;;;;;;;;;;;;;;4986342;28;20366;-89
2020/12/05 04:16:22;;;;;;;;;;;;;;;;;;4980792;28;19926;-89
2020/12/05 04:18:52;;;;;;;;;;;;;;;;;;4980964;28;19993;-89
2020/12/05 04:21:20;;;;;;;;;;;;;;;;;;4988556;28;19929;-89
2020/12/05 04:23:47;;;;;;;;;;;;;;;;;;4985444;28;19952;-90
2020/12/05 04:26:17;;;;;;;;;;;;;;;;;;4995743;28;20308;-91
2020/12/05 04:28:44;;;;;;;;;;;;;;;;;;4961364;29;19934;-89
2020/12/05 04:31:12;;;;;;;;;;;;;;;;;;4973527;28;19926;-89
2020/12/05 04:33:40;;;;;;;;;;;;;;;;;;4980423;28;19968;-89
2020/12/05 04:36:07;;;;;;;;;;;;;;;;;;4980154;28;19940;-88
2020/12/05 04:38:34;;;;;;;;;;;;;;;;;;4981789;28;19933;-88
2020/12/05 04:41:02;;;;;;;;;;;;;;;;;;4999472;28;19929;-89
2020/12/05 04:43:30;;;;;;;;;;;;;;;;;;4984403;28;19926;-88
2020/12/05 04:45:58;;;;;;;;;;;;;;;;;;4980129;28;19934;-89
2020/12/05 04:48:28;;;;;;;;;;;;;;;;;;4979525;28;19926;-89
2020/12/05 04:50:55;;;;;;;;;;;;;;;;;;4967927;28;19965;-89
2020/12/05 04:53:27;;;;;;;;;;;;;;;;;;4985627;28;19926;-89
2020/12/05 04:55:55;;;;;;;;;;;;;;;;;;4980261;28;20367;-89
2020/12/05 04:58:24;;;;;;;;;;;;;;;;;;4980060;28;19936;-89
2020/12/05 05:00:52;;;;;;;;;;;;;;;;;;4994127;28;19972;-89
2020/12/05 05:03:20;;;;;;;;;;;;;;;;;;4996815;28;19926;-89
2020/12/05 05:05:47;;;;;;;;;;;;;;;;;;4978243;28;19973;-89
2020/12/05 05:08:15;;;;;;;;;;;;;;;;;;4977219;28;19926;-91
2020/12/05 05:10:43;;;;;;;;;;;;;;;;;;4977881;28;19937;-89
2020/12/05 05:13:15;;;;;;;;;;;;;;;;;;4977893;28;19926;-89
2020/12/05 05:15:42;;;;;;;;;;;;;;;;;;4985265;28;19934;-89
2020/12/05 05:18:10;;;;;;;;;;;;;;;;;;4979089;28;20313;-89
2020/12/05 05:20:38;;;;;;;;;;;;;;;;;;4979488;28;20262;-89
2020/12/05 05:23:05;;;;;;;;;;;;;;;;;;4978634;28;19933;-90
2020/12/05 05:25:32;;;;;;;;;;;;;;;;;;4976586;28;19930;-89
2020/12/05 05:28:00;;;;;;;;;;;;;;;;;;4978151;28;19926;-89
2020/12/05 05:30:28;;;;;;;;;;;;;;;;;;4990037;28;20021;-89
2020/12/05 05:33:00;;;;;;;;;;;;;;;;;;4978897;28;19981;-89
2020/12/05 05:35:28;;;;;;;;;;;;;;;;;;4997227;28;19932;-88
2020/12/05 05:37:55;;;;;;;;;;;;;;;;;;5000133;28;19925;-89
2020/12/05 05:40:26;;;;;;;;;;;;;;;;;;4998712;28;19930;-90
2020/12/05 05:42:54;;;;;;;;;;;;;;;;;;4999586;28;19926;-88
2020/12/05 05:45:21;;;;;;;;;;;;;;;;;;4987462;28;19926;-89
2020/12/05 05:47:52;;;;;;;;;;;;;;;;;;4980521;28;19933;-89
2020/12/05 05:50:19;;;;;;;;;;;;;;;;;;4973207;28;19973;-89
2020/12/05 05:52:47;;;;;;;;;;;;;;;;;;4980999;28;19970;-90
2020/12/05 05:55:14;;;;;;;;;;;;;;;;;;4979975;28;20385;-89
2020/12/05 05:57:42;;;;;;;;;;;;;;;;;;4981051;28;20421;-90
2020/12/05 06:00:09;;;;;;;;;;;;;;;;;;4981804;28;19926;-90
2020/12/05 06:02:38;;;;;;;;;;;;;;;;;;4981859;28;19941;-89
2020/12/05 06:05:05;;;;;;;;;;;;;;;;;;4978747;28;20393;-89
2020/12/05 06:07:33;;;;;;;;;;;;;;;;;;4981546;28;19981;-89
2020/12/05 06:10:00;;;;;;;;;;;;;;;;;;4979381;28;20025;-90
2020/12/05 06:12:27;;;;;;;;;;;;;;;;;;4980847;28;20290;-90
2020/12/05 06:14:56;;;;;;;;;;;;;;;;;;4977125;28;19926;-89
2020/12/05 06:17:23;;;;;;;;;;;;;;;;;;4987711;28;19957;-89
2020/12/05 06:19:51;;;;;;;;;;;;;;;;;;4996895;28;19925;-89
2020/12/05 06:22:18;;;;;;;;;;;;;;;;;;4981438;28;19970;-90
2020/12/05 06:24:46;;;;;;;;;;;;;;;;;;4974839;28;19927;-90
2020/12/05 06:27:13;;;;;;;;;;;;;;;;;;4976189;28;19957;-89
2020/12/05 06:29:41;;;;;;;;;;;;;;;;;;4976428;28;19926;-90
2020/12/05 06:32:08;;;;;;;;;;;;;;;;;;4975315;28;19942;-91
2020/12/05 06:34:36;;;;;;;;;;;;;;;;;;4975864;28;20326;-89
2020/12/05 06:37:04;;;;;;;;;;;;;;;;;;4976482;28;19926;-89
2020/12/05 06:39:31;;;;;;;;;;;;;;;;;;4977381;28;19933;-90
2020/12/05 06:41:58;;;;;;;;;;;;;;;;;;4976800;28;19933;-89
2020/12/05 06:44:26;;;;;;;;;;;;;;;;;;4976632;28;20363;-89
2020/12/05 06:46:54;;;;;;;;;;;;;;;;;;4978370;28;19934;-89
2020/12/05 06:49:22;;;;;;;;;;;;;;;;;;4981524;28;19926;-89
2020/12/05 06:51:50;;;;;;;;;;;;;;;;;;4982308;28;19926;-90
2020/12/05 06:54:18;;;;;;;;;;;;;;;;;;4983251;28;19968;-90
2020/12/05 06:56:45;;;;;;;;;;;;;;;;;;4992338;28;20022;-89
2020/12/05 06:59:12;;;;;;;;;;;;;;;;;;4989441;28;20223;-90
2020/12/05 07:01:40;;;;;;;;;;;;;;;;;;4976763;28;19956;-90
2020/12/05 07:04:07;;;;;;;;;;;;;;;;;;4975696;28;19926;-90
2020/12/05 07:06:35;;;;;;;;;;;;;;;;;;4975029;28;19933;-89
2020/12/05 07:09:06;;;;;;;;;;;;;;;;;;4974066;28;20288;-90
2020/12/05 07:11:34;;;;;;;;;;;;;;;;;;4979958;28;19926;-90
2020/12/05 07:23:49;;;;;;;;;;;;;;;;;;4983104;28;19929;-91
2020/12/05 07:26:31;;;;;;;;;;;;;;;;;;4987031;28;19926;-91
2020/12/05 08:04:44;;;;;;;;;;;;;;;;;;5279621;23;19942;-63
2020/12/05 08:07:12;;;;;;;;;;;;;;;;;;4953753;28;19935;-61
2020/12/05 08:09:39;;;;;;;;;;;;;;;;;;4954335;29;19930;-62
2020/12/05 08:12:06;;;;;;;;;;;;;;;;;;4949912;29;19927;-61
2020/12/05 08:14:33;;;;;;;;;;;;;;;;;;4939404;29;20017;-59
2020/12/05 08:17:00;;;;;;;;;;;;;;;;;;4948066;29;20370;-64
2020/12/05 08:19:27;;;;;;;;;;;;;;;;;;4945875;28;20026;-60
2020/12/05 08:21:54;;;;;;;;;;;;;;;;;;4966216;28;20104;-60
2020/12/05 08:24:21;;;;;;;;;;;;;;;;;;4951149;28;19934;-63
2020/12/05 08:26:49;;;;;;;;;;;;;;;;;;4946568;29;20005;-59
2020/12/05 08:29:16;;;;;;;;;;;;;;;;;;4950079;28;20379;-59
2020/12/05 08:31:43;;;;;;;;;;;;;;;;;;4942745;28;20022;-60
2020/12/05 08:34:10;;;;;;;;;;;;;;;;;;4938139;29;19969;-60
2020/12/05 08:36:37;;;;;;;;;;;;;;;;;;4937738;29;19966;-59
2020/12/05 08:39:04;;;;;;;;;;;;;;;;;;4948274;29;19927;-62
2020/12/05 08:41:32;;;;;;;;;;;;;;;;;;4935474;29;19970;-59
2020/12/05 08:43:59;;;;;;;;;;;;;;;;;;4952944;29;19927;-59
2020/12/05 08:46:26;;;;;;;;;;;;;;;;;;4944581;28;19931;-61
2020/12/05 08:48:53;;;;;;;;;;;;;;;;;;4949768;29;20379;-63
2020/12/05 08:51:20;;;;;;;;;;;;;;;;;;4950633;29;20446;-60
2020/12/05 08:53:48;;;;;;;;;;;;;;;;;;4952752;29;20013;-60
2020/12/05 08:56:15;;;;;;;;;;;;;;;;;;4939753;29;19926;-59
2020/12/05 08:58:42;;;;;;;;;;;;;;;;;;4949413;29;20033;-59
2020/12/05 09:01:09;;;;;;;;;;;;;;;;;;4944076;28;19934;-63
2020/12/05 09:03:36;;;;;;;;;;;;;;;;;;4949404;29;19965;-60
2020/12/05 09:06:04;;;;;;;;;;;;;;;;;;4952391;28;19930;-61
2020/12/05 09:08:31;;;;;;;;;;;;;;;;;;4953387;28;20052;-60
2020/12/05 09:10:58;;;;;;;;;;;;;;;;;;4963190;28;20446;-65
2020/12/05 09:13:25;;;;;;;;;;;;;;;;;;4955339;28;19973;-63
2020/12/05 09:15:52;;;;;;;;;;;;;;;;;;4949417;28;20324;-63
2020/12/05 09:18:19;;;;;;;;;;;;;;;;;;4938659;28;19969;-63
2020/12/05 09:20:46;;;;;;;;;;;;;;;;;;4952952;28;20013;-64
2020/12/05 09:23:14;;;;;;;;;;;;;;;;;;4959958;28;19933;-64
2020/12/05 09:25:41;;;;;;;;;;;;;;;;;;4949724;28;20017;-64
2020/12/05 09:28:08;;;;;;;;;;;;;;;;;;4941855;29;19926;-66
2020/12/05 09:30:35;;;;;;;;;;;;;;;;;;4953135;28;20382;-63
2020/12/05 09:33:02;;;;;;;;;;;;;;;;;;4941428;28;20429;-64
2020/12/05 09:35:29;;;;;;;;;;;;;;;;;;4949259;28;19930;-63
2020/12/05 09:37:58;;;;;;;;;;;;;;;;;;4945050;29;19982;-63
2020/12/05 09:40:26;;;;;;;;;;;;;;;;;;4945360;29;19934;-63
2020/12/05 09:42:53;;;;;;;;;;;;;;;;;;4949128;29;19931;-62
2020/12/05 09:45:20;;;;;;;;;;;;;;;;;;4936442;29;20024;-63
2020/12/05 09:47:47;;;;;;;;;;;;;;;;;;4949802;29;20369;-66
2020/12/05 09:50:14;;;;;;;;;;;;;;;;;;4950518;28;19966;-63
2020/12/05 09:52:42;;;;;;;;;;;;;;;;;;4946190;29;20516;-65
2020/12/05 09:55:09;;;;;;;;;;;;;;;;;;4945504;28;20454;-65
2020/12/05 09:57:36;;;;;;;;;;;;;;;;;;4942707;29;20037;-63
2020/12/05 10:00:03;;;;;;;;;;;;;;;;;;4940018;29;19973;-65
2020/12/05 10:02:30;;;;;;;;;;;;;;;;;;4947167;29;20025;-64
2020/12/05 10:04:57;;;;;;;;;;;;;;;;;;4947835;28;19935;-64
2020/12/05 10:07:24;;;;;;;;;;;;;;;;;;4931419;29;20323;-63
2020/12/05 10:09:52;;;;;;;;;;;;;;;;;;4938369;29;19942;-64
2020/12/05 10:12:19;;;;;;;;;;;;;;;;;;4952055;28;20025;-62
2020/12/05 10:14:46;;;;;;;;;;;;;;;;;;4951691;28;19930;-63
2020/12/05 10:17:13;;;;;;;;;;;;;;;;;;4942558;29;20010;-63
2020/12/05 10:19:40;;;;;;;;;;;;;;;;;;4946344;29;19976;-65
2020/12/05 10:22:19;;;;;;;;;;;;;;;;;;4944112;28;20326;-65
2020/12/05 10:24:46;;;;;;;;;;;;;;;;;;4943606;28;19927;-63
2020/12/05 10:27:13;;;;;;;;;;;;;;;;;;4943816;29;19931;-64
2020/12/05 10:29:40;;;;;;;;;;;;;;;;;;4931712;29;20387;-65
2020/12/05 10:32:08;;;;;;;;;;;;;;;;;;4936552;29;20394;-66
2020/12/05 10:34:35;;;;;;;;;;;;;;;;;;4944027;28;20418;-63
2020/12/05 10:37:02;;;;;;;;;;;;;;;;;;4950921;28;20391;-66
2020/12/05 10:39:29;;;;;;;;;;;;;;;;;;4948641;28;19966;-64
2020/12/05 10:41:56;;;;;;;;;;;;;;;;;;4950865;28;20386;-60
2020/12/05 10:44:23;;;;;;;;;;;;;;;;;;4947371;28;19926;-61
2020/12/05 10:46:51;;;;;;;;;;;;;;;;;;4952351;29;19938;-59
2020/12/05 10:49:18;;;;;;;;;;;;;;;;;;4949593;29;20467;-59
2020/12/05 10:51:45;;;;;;;;;;;;;;;;;;4945671;29;19961;-59
2020/12/05 10:54:12;;;;;;;;;;;;;;;;;;4948407;29;19985;-60
2020/12/05 10:56:39;;;;;;;;;;;;;;;;;;4949399;29;20702;-61
2020/12/05 10:59:06;;;;;;;;;;;;;;;;;;4940714;29;20417;-60
2020/12/05 11:01:34;;;;;;;;;;;;;;;;;;4949264;29;20351;-61
2020/12/05 11:04:01;;;;;;;;;;;;;;;;;;4950347;29;19933;-59
2020/12/05 11:06:28;;;;;;;;;;;;;;;;;;4946583;28;19930;-60
2020/12/05 11:08:55;;;;;;;;;;;;;;;;;;4953871;29;19937;-60
2020/12/05 11:11:22;;;;;;;;;;;;;;;;;;4942637;29;19927;-60
2020/12/05 11:13:50;;;;;;;;;;;;;;;;;;4953994;28;19931;-60
2020/12/05 11:16:17;;;;;;;;;;;;;;;;;;4948362;28;19926;-60
2020/12/05 11:18:44;;;;;;;;;;;;;;;;;;4955598;29;19932;-62
2020/12/05 11:21:11;;;;;;;;;;;;;;;;;;4954606;28;20042;-60
2020/12/05 11:23:38;;;;;;;;;;;;;;;;;;4943304;29;20014;-59
2020/12/05 11:26:05;;;;;;;;;;;;;;;;;;4952564;29;19961;-61
2020/12/05 11:28:32;;;;;;;;;;;;;;;;;;4961977;28;20435;-60
2020/12/05 11:30:59;;;;;;;;;;;;;;;;;;4960207;28;20052;-59
2020/12/05 11:33:26;;;;;;;;;;;;;;;;;;4961902;28;19930;-59
2020/12/05 11:35:54;;;;;;;;;;;;;;;;;;4951325;28;19931;-59
2020/12/05 11:38:21;;;;;;;;;;;;;;;;;;4946391;28;19937;-60
2020/12/05 11:40:48;;;;;;;;;;;;;;;;;;4939478;29;20013;-60
2020/12/05 11:43:15;;;;;;;;;;;;;;;;;;4950398;28;19934;-59
2020/12/05 11:45:42;;;;;;;;;;;;;;;;;;4949908;28;19930;-60
2020/12/05 11:48:09;;;;;;;;;;;;;;;;;;4944497;28;19930;-62
2020/12/05 11:50:36;;;;;;;;;;;;;;;;;;4942229;29;19966;-60
2020/12/05 11:53:03;;;;;;;;;;;;;;;;;;4948343;29;20021;-59
2020/12/05 11:55:30;;;;;;;;;;;;;;;;;;4940193;29;19966;-59
2020/12/05 11:57:58;;;;;;;;;;;;;;;;;;4955639;29;19977;-57
2020/12/05 12:00:25;;;;;;;;;;;;;;;;;;4949834;28;19936;-58
2020/12/05 12:02:53;;;;;;;;;;;;;;;;;;4950789;28;19982;-59
2020/12/05 12:05:20;;;;;;;;;;;;;;;;;;4941080;28;20056;-58
2020/12/05 12:07:47;;;;;;;;;;;;;;;;;;4937013;29;19927;-57
2020/12/05 12:10:14;;;;;;;;;;;;;;;;;;4947358;29;19927;-57
2020/12/05 12:12:42;;;;;;;;;;;;;;;;;;4954245;28;19997;-58
2020/12/05 12:15:09;;;;;;;;;;;;;;;;;;4947133;28;20371;-57
2020/12/05 12:17:36;;;;;;;;;;;;;;;;;;4948467;29;20013;-58
2020/12/05 12:20:03;;;;;;;;;;;;;;;;;;4940375;29;20091;-58
2020/12/05 12:22:30;;;;;;;;;;;;;;;;;;4947172;28;19927;-58
2020/12/05 12:24:57;;;;;;;;;;;;;;;;;;4936899;28;20018;-57
2020/12/05 12:27:24;;;;;;;;;;;;;;;;;;4957769;28;20029;-59
2020/12/05 12:29:52;;;;;;;;;;;;;;;;;;4938474;29;19936;-59
2020/12/05 12:32:19;;;;;;;;;;;;;;;;;;4935579;29;20025;-59
2020/12/05 12:34:49;;;;;;;;;;;;;;;;;;4948667;28;19926;-58
2020/12/05 12:37:16;;;;;;;;;;;;;;;;;;4949020;28;19997;-58
2020/12/05 12:39:44;;;;;;;;;;;;;;;;;;4953158;29;20009;-60
2020/12/05 12:42:13;;;;;;;;;;;;;;;;;;4949676;29;19946;-60
2020/12/05 12:44:41;;;;;;;;;;;;;;;;;;4949014;28;19930;-59
2020/12/05 12:47:35;;;;;;;;;;;;;;;;;;4956825;28;20027;-62
2020/12/05 12:50:02;;;;;;;;;;;;;;;;;;4952303;28;20013;-60
2020/12/05 12:52:29;;;;;;;;;;;;;;;;;;4948285;29;19926;-59
2020/12/05 12:54:57;;;;;;;;;;;;;;;;;;4951004;29;20267;-58
2020/12/05 12:57:28;;;;;;;;;;;;;;;;;;4950622;28;20453;-58
2020/12/05 12:59:55;;;;;;;;;;;;;;;;;;4949094;29;19978;-58
2020/12/05 13:02:22;;;;;;;;;;;;;;;;;;4945211;29;19931;-59
2020/12/05 13:04:50;;;;;;;;;;;;;;;;;;4952108;28;19930;-58
2020/12/05 13:07:17;;;;;;;;;;;;;;;;;;4955228;28;19926;-59
2020/12/05 13:09:44;;;;;;;;;;;;;;;;;;4949151;29;20460;-62
2020/12/05 13:12:11;;;;;;;;;;;;;;;;;;4943558;28;20017;-62
2020/12/05 13:14:38;;;;;;;;;;;;;;;;;;4952136;28;19941;-61
2020/12/05 13:17:05;;;;;;;;;;;;;;;;;;4945214;28;20030;-59
2020/12/05 13:19:33;;;;;;;;;;;;;;;;;;4952650;28;19961;-60
2020/12/05 13:22:00;;;;;;;;;;;;;;;;;;4951262;28;20252;-59
2020/12/05 13:24:27;;;;;;;;;;;;;;;;;;4939456;29;19962;-59
2020/12/05 13:26:54;;;;;;;;;;;;;;;;;;4960103;28;20057;-58
2020/12/05 13:29:21;;;;;;;;;;;;;;;;;;4943229;28;20025;-59
2020/12/05 13:31:49;;;;;;;;;;;;;;;;;;4937975;28;20017;-58
2020/12/05 13:34:16;;;;;;;;;;;;;;;;;;4936396;29;20302;-60
2020/12/05 13:36:44;;;;;;;;;;;;;;;;;;4948509;28;20361;-58
2020/12/05 13:39:11;;;;;;;;;;;;;;;;;;4945057;28;20046;-61
2020/12/05 13:41:39;;;;;;;;;;;;;;;;;;4964865;28;20399;-60
2020/12/05 13:44:06;;;;;;;;;;;;;;;;;;4945450;28;19931;-60
2020/12/05 13:46:33;;;;;;;;;;;;;;;;;;4934699;28;19993;-59
2020/12/05 13:49:00;;;;;;;;;;;;;;;;;;4949548;28;19977;-59
2020/12/05 13:51:28;;;;;;;;;;;;;;;;;;4946530;29;19926;-62
2020/12/05 13:53:57;;;;;;;;;;;;;;;;;;4943726;29;19978;-62
2020/12/05 13:56:25;;;;;;;;;;;;;;;;;;4938152;29;20455;-62
2020/12/05 13:58:52;;;;;;;;;;;;;;;;;;4952275;28;19988;-64
2020/12/05 14:01:19;;;;;;;;;;;;;;;;;;4938036;29;19985;-62
2020/12/05 14:03:47;;;;;;;;;;;;;;;;;;4941749;29;19930;-62
2020/12/05 14:06:14;;;;;;;;;;;;;;;;;;4948899;28;19973;-62
2020/12/05 14:08:41;;;;;;;;;;;;;;;;;;4937557;29;19958;-63
2020/12/05 14:11:08;;;;;;;;;;;;;;;;;;4932155;29;20391;-64
2020/12/05 14:13:36;;;;;;;;;;;;;;;;;;4944588;28;20025;-63
2020/12/05 14:16:03;;;;;;;;;;;;;;;;;;4936380;28;19930;-64
2020/12/05 14:18:30;;;;;;;;;;;;;;;;;;4931411;29;19931;-63
2020/12/05 14:20:57;;;;;;;;;;;;;;;;;;4955095;28;20429;-63
2020/12/05 14:23:24;;;;;;;;;;;;;;;;;;4961315;28;20449;-63
2020/12/05 14:25:52;;;;;;;;;;;;;;;;;;4947425;28;19934;-63
2020/12/05 14:28:19;;;;;;;;;;;;;;;;;;4948709;29;20013;-63
2020/12/05 14:30:46;;;;;;;;;;;;;;;;;;4946141;29;19982;-63
2020/12/05 14:33:16;;;;;;;;;;;;;;;;;;4931851;29;19985;-63
2020/12/05 14:35:43;;;;;;;;;;;;;;;;;;4938698;28;19934;-64
2020/12/05 14:38:11;;;;;;;;;;;;;;;;;;4932687;29;20359;-64
2020/12/05 14:40:38;;;;;;;;;;;;;;;;;;4935164;29;19931;-63
2020/12/05 14:43:05;;;;;;;;;;;;;;;;;;4949294;29;20033;-61
2020/12/05 14:45:32;;;;;;;;;;;;;;;;;;4950076;28;19930;-61
2020/12/05 14:47:59;;;;;;;;;;;;;;;;;;4946082;28;20053;-62
2020/12/05 14:50:27;;;;;;;;;;;;;;;;;;4950564;28;19930;-63
2020/12/05 14:52:55;;;;;;;;;;;;;;;;;;4964466;28;19945;-61
2020/12/05 14:55:23;;;;;;;;;;;;;;;;;;4934854;29;20021;-61
2020/12/05 14:57:50;;;;;;;;;;;;;;;;;;4943680;28;19953;-61
2020/12/05 15:00:18;;;;;;;;;;;;;;;;;;4948366;28;19937;-62
2020/12/05 15:02:45;;;;;;;;;;;;;;;;;;4948537;28;20407;-61
2020/12/05 15:05:12;;;;;;;;;;;;;;;;;;4934891;29;20098;-61
2020/12/05 15:07:39;;;;;;;;;;;;;;;;;;4947450;29;20021;-61
2020/12/05 15:10:06;;;;;;;;;;;;;;;;;;4934973;29;19970;-62
2020/12/05 15:12:34;;;;;;;;;;;;;;;;;;4944318;28;19957;-61
2020/12/05 15:15:01;;;;;;;;;;;;;;;;;;4935865;28;19927;-61
2020/12/05 15:17:28;;;;;;;;;;;;;;;;;;4946536;29;19931;-62
2020/12/05 15:19:56;;;;;;;;;;;;;;;;;;4957672;28;19981;-61
2020/12/05 15:22:23;;;;;;;;;;;;;;;;;;4942858;28;20302;-62
2020/12/05 15:24:50;;;;;;;;;;;;;;;;;;4939172;28;20326;-61
2020/12/05 15:27:17;;;;;;;;;;;;;;;;;;4935105;29;19985;-62
2020/12/05 15:29:44;;;;;;;;;;;;;;;;;;4938271;29;19937;-61
2020/12/05 15:32:12;;;;;;;;;;;;;;;;;;4952336;28;19930;-61
2020/12/05 15:34:39;;;;;;;;;;;;;;;;;;4949813;28;19938;-61
2020/12/05 15:37:06;;;;;;;;;;;;;;;;;;4951822;28;19972;-62
2020/12/05 15:39:33;;;;;;;;;;;;;;;;;;4949245;28;20029;-62
2020/12/05 15:42:00;;;;;;;;;;;;;;;;;;4956666;28;19930;-62
2020/12/05 15:44:28;;;;;;;;;;;;;;;;;;4955495;28;19978;-62
2020/12/05 15:46:55;;;;;;;;;;;;;;;;;;4953231;28;19934;-63
2020/12/05 15:49:23;;;;;;;;;;;;;;;;;;4947548;28;20347;-62
2020/12/05 15:51:50;;;;;;;;;;;;;;;;;;4949837;29;19977;-62
2020/12/05 15:54:17;;;;;;;;;;;;;;;;;;4950562;28;19933;-61
2020/12/05 15:56:45;;;;;;;;;;;;;;;;;;4951203;29;20069;-61
2020/12/05 15:59:12;;;;;;;;;;;;;;;;;;4951998;28;20017;-61
2020/12/05 16:01:39;;;;;;;;;;;;;;;;;;4950963;28;19986;-61
2020/12/05 16:04:06;;;;;;;;;;;;;;;;;;4953059;28;19970;-62
2020/12/05 16:06:33;;;;;;;;;;;;;;;;;;4952463;29;20033;-62
2020/12/05 16:09:00;;;;;;;;;;;;;;;;;;4952545;28;19933;-62
2020/12/05 16:11:29;;;;;;;;;;;;;;;;;;4952203;28;20298;-62
2020/12/05 16:13:56;;;;;;;;;;;;;;;;;;4953748;28;19930;-61
2020/12/05 16:16:36;;;;;;;;;;;;;;;;;;4951588;29;20665;-61
2020/12/05 16:19:04;;;;;;;;;;;;;;;;;;4953077;29;20021;-62
2020/12/05 16:21:31;;;;;;;;;;;;;;;;;;4967949;28;19976;-62
2020/12/05 16:23:59;;;;;;;;;;;;;;;;;;4962987;28;20374;-61
2020/12/05 16:26:26;;;;;;;;;;;;;;;;;;4962844;28;19933;-62
2020/12/05 16:28:55;;;;;;;;;;;;;;;;;;4963485;28;20436;-61
2020/12/05 16:31:22;;;;;;;;;;;;;;;;;;4951115;29;19931;-62
2020/12/05 16:33:50;;;;;;;;;;;;;;;;;;4959428;28;20437;-62
2020/12/05 16:36:17;;;;;;;;;;;;;;;;;;4951126;28;19930;-63
2020/12/05 16:38:44;;;;;;;;;;;;;;;;;;4949503;28;20001;-64
2020/12/05 16:41:11;;;;;;;;;;;;;;;;;;4954351;28;19930;-64
2020/12/05 16:43:38;;;;;;;;;;;;;;;;;;4951983;28;19930;-61
2020/12/05 16:46:05;;;;;;;;;;;;;;;;;;4942059;28;19994;-61
2020/12/05 16:48:33;;;;;;;;;;;;;;;;;;4944240;28;19958;-61
2020/12/05 16:51:00;;;;;;;;;;;;;;;;;;4944889;28;21297;-62
2020/12/05 16:53:27;;;;;;;;;;;;;;;;;;4944454;28;19937;-61
2020/12/05 16:55:54;;;;;;;;;;;;;;;;;;4944069;28;20026;-63
2020/12/05 16:58:24;;;;;;;;;;;;;;;;;;4944337;28;19931;-61
2020/12/05 17:00:51;;;;;;;;;;;;;;;;;;4943359;28;20223;-62
2020/12/05 17:03:18;;;;;;;;;;;;;;;;;;4961920;28;20033;-61
2020/12/05 17:05:46;;;;;;;;;;;;;;;;;;4955536;28;19934;-65
2020/12/05 17:08:13;;;;;;;;;;;;;;;;;;4969021;28;20417;-63
2020/12/05 17:10:40;;;;;;;;;;;;;;;;;;4966681;28;20029;-66
2020/12/05 17:13:08;;;;;;;;;;;;;;;;;;4960403;28;19989;-62
2020/12/05 17:15:35;;;;;;;;;;;;;;;;;;4965368;28;19930;-65
2020/12/05 17:18:02;;;;;;;;;;;;;;;;;;4951915;29;19973;-62
2020/12/05 17:20:40;;;;;;;;;;;;;;;;;;4955578;28;19931;-64
2020/12/05 17:23:07;;;;;;;;;;;;;;;;;;4968716;28;19968;-61
2020/12/05 17:25:34;;;;;;;;;;;;;;;;;;4952793;28;19937;-63
2020/12/05 17:28:01;;;;;;;;;;;;;;;;;;4960583;28;19932;-64
2020/12/05 17:30:28;;;;;;;;;;;;;;;;;;4953219;28;20052;-65
2020/12/05 17:32:56;;;;;;;;;;;;;;;;;;4951409;29;20021;-65
2020/12/05 17:35:23;;;;;;;;;;;;;;;;;;4950710;28;20002;-64